Terminal Aerodrome Forecast
Issued by NWS North Platte, NE

Home | Current Version | Previous Version | Graphics & Text | Print | Product List | Glossary On
Versions: 1 2 3 4 5 6 7 8 9 10 11 12 13 14 15 16 17 18 19 20 21 22 23 24 25 26 27 28 29
000
FTUS43 KLBF 222000 AAA
TAFVTN
TAF AMD
KVTN 222015Z 2220/2318 31019G27KT P6SM -RASN BKN035
     FM222200 31021G28KT P6SM -RASN SCT015 OVC025
     FM230100 32021G30KT 3SM -SN BR OVC008
     FM230800 33023G32KT 1SM -SN BLSN OVC007
     FM231600 33025G34KT 5SM -SN BLSN OVC011=

USA.gov is the U.S. government's official web portal to all federal, state and local government web resources and services.